sensor_id;sensor_type;location;lat;lon;timestamp;pressure;altitude;pressure_sealevel;temperature;humidity
41624;BME280;27319;50.306;18.926;2023-05-25T00:00:46;98721.50;;;13.45;83.96
41624;BME280;27319;50.306;18.926;2023-05-25T00:04:03;98732.63;;;13.42;83.50
41624;BME280;27319;50.306;18.926;2023-05-25T00:07:04;98730.78;;;13.42;83.60
41624;BME280;27319;50.306;18.926;2023-05-25T00:10:06;98726.63;;;13.32;82.74
41624;BME280;27319;50.306;18.926;2023-05-25T00:13:27;98723.75;;;13.25;83.01
41624;BME280;27319;50.306;18.926;2023-05-25T00:17:28;98716.91;;;13.15;84.19
41624;BME280;27319;50.306;18.926;2023-05-25T00:21:29;98719.59;;;13.15;83.80
41624;BME280;27319;50.306;18.926;2023-05-25T00:25:30;98722.91;;;13.25;84.09
41624;BME280;27319;50.306;18.926;2023-05-25T00:29:43;98726.56;;;13.40;83.31
41624;BME280;27319;50.306;18.926;2023-05-25T00:33:04;98718.34;;;13.33;83.73
41624;BME280;27319;50.306;18.926;2023-05-25T00:36:25;98723.34;;;13.52;83.17
41624;BME280;27319;50.306;18.926;2023-05-25T00:40:29;98724.03;;;13.46;82.64
41624;BME280;27319;50.306;18.926;2023-05-25T00:44:30;98719.13;;;13.50;82.45
41624;BME280;27319;50.306;18.926;2023-05-25T00:48:31;98717.47;;;13.49;82.32
41624;BME280;27319;50.306;18.926;2023-05-25T00:52:32;98721.59;;;13.13;83.74
41624;BME280;27319;50.306;18.926;2023-05-25T00:56:34;98722.63;;;13.20;83.69
41624;BME280;27319;50.306;18.926;2023-05-25T01:00:14;98729.31;;;13.32;82.83
41624;BME280;27319;50.306;18.926;2023-05-25T01:03:18;98730.19;;;13.16;84.18
41624;BME280;27319;50.306;18.926;2023-05-25T01:06:22;98731.19;;;13.23;83.32
41624;BME280;27319;50.306;18.926;2023-05-25T01:09:27;98733.88;;;13.23;83.25
41624;BME280;27319;50.306;18.926;2023-05-25T01:12:49;98739.44;;;13.14;83.51
41624;BME280;27319;50.306;18.926;2023-05-25T01:16:30;98733.69;;;13.25;83.00
41624;BME280;27319;50.306;18.926;2023-05-25T01:19:31;98724.63;;;13.18;83.15
41624;BME280;27319;50.306;18.926;2023-05-25T01:23:03;98725.59;;;13.25;82.89
41624;BME280;27319;50.306;18.926;2023-05-25T01:26:46;98724.94;;;13.23;82.56
41624;BME280;27319;50.306;18.926;2023-05-25T01:29:48;98734.03;;;13.30;82.65
41624;BME280;27319;50.306;18.926;2023-05-25T01:32:58;98731.53;;;13.28;82.76
41624;BME280;27319;50.306;18.926;2023-05-25T01:36:03;98735.91;;;13.29;82.75
41624;BME280;27319;50.306;18.926;2023-05-25T01:39:05;98730.31;;;13.31;82.70
41624;BME280;27319;50.306;18.926;2023-05-25T01:42:07;98741.75;;;13.41;82.38
41624;BME280;27319;50.306;18.926;2023-05-25T01:45:28;98741.84;;;13.09;83.38
41624;BME280;27319;50.306;18.926;2023-05-25T01:53:18;98725.34;;;12.80;84.91
41624;BME280;27319;50.306;18.926;2023-05-25T01:56:23;98729.75;;;12.97;84.16
41624;BME280;27319;50.306;18.926;2023-05-25T01:59:27;98726.19;;;12.88;84.33
41624;BME280;27319;50.306;18.926;2023-05-25T02:02:30;98723.66;;;12.87;84.53
41624;BME280;27319;50.306;18.926;2023-05-25T02:05:35;98718.75;;;12.90;84.32
41624;BME280;27319;50.306;18.926;2023-05-25T02:08:57;98720.59;;;12.90;84.23
41624;BME280;27319;50.306;18.926;2023-05-25T02:12:38;98721.66;;;12.97;84.11
41624;BME280;27319;50.306;18.926;2023-05-25T02:15:40;98724.28;;;13.21;83.21
41624;BME280;27319;50.306;18.926;2023-05-25T02:18:41;98722.13;;;13.08;83.97
41624;BME280;27319;50.306;18.926;2023-05-25T02:21:44;98717.06;;;13.13;83.41
41624;BME280;27319;50.306;18.926;2023-05-25T02:25:05;98723.81;;;13.09;83.77
41624;BME280;27319;50.306;18.926;2023-05-25T02:28:46;98720.94;;;13.11;83.37
41624;BME280;27319;50.306;18.926;2023-05-25T02:32:07;98731.19;;;13.23;82.90
41624;BME280;27319;50.306;18.926;2023-05-25T02:35:31;98728.50;;;13.23;82.92
41624;BME280;27319;50.306;18.926;2023-05-25T02:38:52;98731.53;;;13.28;82.92
41624;BME280;27319;50.306;18.926;2023-05-25T02:42:33;98731.34;;;13.22;83.06
41624;BME280;27319;50.306;18.926;2023-05-25T02:45:33;98732.75;;;13.02;83.58
41624;BME280;27319;50.306;18.926;2023-05-25T02:48:35;98730.22;;;12.84;84.57
41624;BME280;27319;50.306;18.926;2023-05-25T02:51:56;98720.97;;;12.87;84.87
41624;BME280;27319;50.306;18.926;2023-05-25T02:55:57;98729.72;;;13.05;83.80
41624;BME280;27319;50.306;18.926;2023-05-25T02:59:58;98722.63;;;12.88;84.07
41624;BME280;27319;50.306;18.926;2023-05-25T03:03:28;98729.22;;;13.01;83.73
41624;BME280;27319;50.306;18.926;2023-05-25T03:07:04;98723.31;;;12.82;84.49
41624;BME280;27319;50.306;18.926;2023-05-25T03:11:05;98730.41;;;12.99;83.88
41624;BME280;27319;50.306;18.926;2023-05-25T03:15:06;98727.19;;;12.87;84.43
41624;BME280;27319;50.306;18.926;2023-05-25T03:19:07;98720.28;;;12.93;84.10
41624;BME280;27319;50.306;18.926;2023-05-25T03:23:08;98711.19;;;13.10;83.29
41624;BME280;27319;50.306;18.926;2023-05-25T03:27:09;98726.69;;;12.92;83.75
41624;BME280;27319;50.306;18.926;2023-05-25T03:31:10;98722.66;;;12.72;85.15
41624;BME280;27319;50.306;18.926;2023-05-25T03:35:11;98720.97;;;12.87;84.45
41624;BME280;27319;50.306;18.926;2023-05-25T03:38:56;98731.25;;;12.83;84.40
41624;BME280;27319;50.306;18.926;2023-05-25T03:41:57;98730.22;;;12.84;84.84
41624;BME280;27319;50.306;18.926;2023-05-25T03:44:58;98729.91;;;12.79;85.08
41624;BME280;27319;50.306;18.926;2023-05-25T03:47:59;98736.44;;;12.85;84.81
41624;BME280;27319;50.306;18.926;2023-05-25T03:51:00;98743.53;;;12.86;85.20
41624;BME280;27319;50.306;18.926;2023-05-25T03:54:16;98745.19;;;12.79;84.41
41624;BME280;27319;50.306;18.926;2023-05-25T03:57:37;98736.28;;;12.70;85.11
41624;BME280;27319;50.306;18.926;2023-05-25T04:01:18;98737.81;;;12.65;85.37
41624;BME280;27319;50.306;18.926;2023-05-25T04:04:39;98747.94;;;12.63;86.29
41624;BME280;27319;50.306;18.926;2023-05-25T04:07:56;98755.13;;;12.86;84.35
41624;BME280;27319;50.306;18.926;2023-05-25T04:10:57;98758.00;;;12.85;84.39
41624;BME280;27319;50.306;18.926;2023-05-25T04:13:58;98754.47;;;12.76;84.71
41624;BME280;27319;50.306;18.926;2023-05-25T04:17:19;98755.97;;;12.79;85.05
41624;BME280;27319;50.306;18.926;2023-05-25T04:21:00;98759.03;;;12.68;85.47
41624;BME280;27319;50.306;18.926;2023-05-25T04:24:21;98756.34;;;12.76;85.04
41624;BME280;27319;50.306;18.926;2023-05-25T04:28:21;98766.59;;;12.72;85.32
41624;BME280;27319;50.306;18.926;2023-05-25T04:32:22;98776.69;;;12.62;86.26
41624;BME280;27319;50.306;18.926;2023-05-25T04:36:09;98769.28;;;12.64;86.15
41624;BME280;27319;50.306;18.926;2023-05-25T04:40:10;98771.28;;;12.70;85.60
41624;BME280;27319;50.306;18.926;2023-05-25T04:44:11;98770.13;;;12.81;84.55
41624;BME280;27319;50.306;18.926;2023-05-25T04:47:54;98782.59;;;12.74;85.80
41624;BME280;27319;50.306;18.926;2023-05-25T04:50:55;98785.13;;;12.83;84.91
41624;BME280;27319;50.306;18.926;2023-05-25T04:54:17;98786.28;;;12.73;85.48
41624;BME280;27319;50.306;18.926;2023-05-25T04:58:18;98785.28;;;12.74;85.02
41624;BME280;27319;50.306;18.926;2023-05-25T05:02:19;98778.56;;;12.86;84.28
41624;BME280;27319;50.306;18.926;2023-05-25T05:05:36;98786.28;;;12.89;83.79
41624;BME280;27319;50.306;18.926;2023-05-25T05:08:57;98789.66;;;12.83;83.93
41624;BME280;27319;50.306;18.926;2023-05-25T05:13:00;98778.56;;;12.86;84.39
41624;BME280;27319;50.306;18.926;2023-05-25T05:17:14;98786.63;;;12.86;84.66
41624;BME280;27319;50.306;18.926;2023-05-25T05:21:15;98798.44;;;13.01;83.91
41624;BME280;27319;50.306;18.926;2023-05-25T05:24:57;98803.81;;;13.01;83.88
41624;BME280;27319;50.306;18.926;2023-05-25T05:28:18;98806.81;;;12.90;85.23
41624;BME280;27319;50.306;18.926;2023-05-25T05:32:19;98807.72;;;13.06;84.08
41624;BME280;27319;50.306;18.926;2023-05-25T05:36:21;98815.44;;;13.17;82.88
41624;BME280;27319;50.306;18.926;2023-05-25T05:40:24;98811.56;;;13.12;84.35
41624;BME280;27319;50.306;18.926;2023-05-25T05:44:26;98812.22;;;12.90;84.88
41624;BME280;27319;50.306;18.926;2023-05-25T05:48:28;98820.97;;;12.84;85.25
41624;BME280;27319;50.306;18.926;2023-05-25T05:52:29;98817.63;;;12.74;85.92
41624;BME280;27319;50.306;18.926;2023-05-25T05:56:36;98819.13;;;12.84;85.18
41624;BME280;27319;50.306;18.926;2023-05-25T06:00:39;98821.16;;;12.90;85.42
41624;BME280;27319;50.306;18.926;2023-05-25T06:04:40;98823.00;;;12.74;85.95
41624;BME280;27319;50.306;18.926;2023-05-25T06:08:41;98825.69;;;12.82;86.12
41624;BME280;27319;50.306;18.926;2023-05-25T06:12:27;98829.25;;;12.82;85.07
41624;BME280;27319;50.306;18.926;2023-05-25T06:16:28;98839.81;;;12.84;85.78
41624;BME280;27319;50.306;18.926;2023-05-25T06:20:32;98846.41;;;12.89;85.75
41624;BME280;27319;50.306;18.926;2023-05-25T06:24:35;98846.25;;;12.75;86.24
41624;BME280;27319;50.306;18.926;2023-05-25T06:28:16;98838.97;;;12.59;87.44
41624;BME280;27319;50.306;18.926;2023-05-25T06:31:37;98848.09;;;12.82;85.67
41624;BME280;27319;50.306;18.926;2023-05-25T06:35:38;98846.75;;;12.78;86.12
41624;BME280;27319;50.306;18.926;2023-05-25T06:39:40;98851.97;;;12.88;85.37
41624;BME280;27319;50.306;18.926;2023-05-25T06:43:42;98854.16;;;12.92;85.75
41624;BME280;27319;50.306;18.926;2023-05-25T06:47:43;98852.28;;;12.77;85.71
41624;BME280;27319;50.306;18.926;2023-05-25T06:51:44;98857.00;;;12.75;86.25
41624;BME280;27319;50.306;18.926;2023-05-25T06:55:45;98864.25;;;12.82;85.41
41624;BME280;27319;50.306;18.926;2023-05-25T06:59:46;98861.38;;;12.84;85.17
41624;BME280;27319;50.306;18.926;2023-05-25T07:03:27;98862.75;;;12.80;85.51
41624;BME280;27319;50.306;18.926;2023-05-25T07:06:28;98863.41;;;12.82;85.60
41624;BME280;27319;50.306;18.926;2023-05-25T07:09:49;98863.06;;;12.69;86.03
41624;BME280;27319;50.306;18.926;2023-05-25T07:13:51;98869.50;;;12.92;84.82
41624;BME280;27319;50.306;18.926;2023-05-25T07:17:52;98875.84;;;12.91;85.85
41624;BME280;27319;50.306;18.926;2023-05-25T07:21:33;98876.34;;;12.70;85.97
41624;BME280;27319;50.306;18.926;2023-05-25T07:24:35;98870.44;;;12.67;85.89
41624;BME280;27319;50.306;18.926;2023-05-25T07:27:38;98879.56;;;12.82;85.58
41624;BME280;27319;50.306;18.926;2023-05-25T07:30:39;98881.97;;;13.01;84.47
41624;BME280;27319;50.306;18.926;2023-05-25T07:33:41;98885.53;;;13.01;84.15
41624;BME280;27319;50.306;18.926;2023-05-25T07:36:43;98885.16;;;12.88;84.64
41624;BME280;27319;50.306;18.926;2023-05-25T07:39:44;98885.00;;;12.98;84.78
41624;BME280;27319;50.306;18.926;2023-05-25T07:42:45;98882.97;;;13.00;84.48
41624;BME280;27319;50.306;18.926;2023-05-25T07:45:46;98886.34;;;13.02;83.87
41624;BME280;27319;50.306;18.926;2023-05-25T07:48:47;98885.19;;;12.96;84.66
41624;BME280;27319;50.306;18.926;2023-05-25T07:51:49;98894.44;;;13.10;83.29
41624;BME280;27319;50.306;18.926;2023-05-25T07:54:50;98890.56;;;12.96;84.83
41624;BME280;27319;50.306;18.926;2023-05-25T07:57:51;98895.78;;;12.98;84.60
41624;BME280;27319;50.306;18.926;2023-05-25T08:00:52;98886.44;;;12.68;86.14
41624;BME280;27319;50.306;18.926;2023-05-25T08:03:55;98893.91;;;12.82;85.70
41624;BME280;27319;50.306;18.926;2023-05-25T08:07:19;98887.66;;;12.90;85.09
41624;BME280;27319;50.306;18.926;2023-05-25T08:10:32;98892.06;;;13.07;83.52
41624;BME280;27319;50.306;18.926;2023-05-25T08:13:33;98890.56;;;13.04;84.90
41624;BME280;27319;50.306;18.926;2023-05-25T08:16:34;98889.72;;;13.04;84.64
41624;BME280;27319;50.306;18.926;2023-05-25T08:19:35;98888.72;;;13.05;85.00
41624;BME280;27319;50.306;18.926;2023-05-25T08:22:37;98885.66;;;13.08;84.83
41624;BME280;27319;50.306;18.926;2023-05-25T08:25:37;98885.34;;;13.11;85.11
41624;BME280;27319;50.306;18.926;2023-05-25T08:28:40;98886.00;;;13.29;83.68
41624;BME280;27319;50.306;18.926;2023-05-25T08:31:43;98893.09;;;13.22;84.92
41624;BME280;27319;50.306;18.926;2023-05-25T08:34:47;98878.22;;;12.94;85.88
41624;BME280;27319;50.306;18.926;2023-05-25T08:37:49;98883.31;;;13.13;84.67
41624;BME280;27319;50.306;18.926;2023-05-25T08:44:02;98891.56;;;13.27;83.63
41624;BME280;27319;50.306;18.926;2023-05-25T08:47:09;98883.13;;;13.38;82.67
41624;BME280;27319;50.306;18.926;2023-05-25T08:50:11;98887.84;;;13.44;83.20
41624;BME280;27319;50.306;18.926;2023-05-25T08:53:15;98893.09;;;13.46;83.56
41624;BME280;27319;50.306;18.926;2023-05-25T08:56:19;98896.47;;;13.40;84.14
41624;BME280;27319;50.306;18.926;2023-05-25T08:59:43;98892.91;;;13.47;82.55
41624;BME280;27319;50.306;18.926;2023-05-25T09:03:05;98889.69;;;13.52;83.20
41624;BME280;27319;50.306;18.926;2023-05-25T09:06:30;98902.84;;;13.55;83.74
41624;BME280;27319;50.306;18.926;2023-05-25T09:09:31;98886.47;;;13.64;83.17
41624;BME280;27319;50.306;18.926;2023-05-25T09:12:35;98892.38;;;13.60;83.36
41624;BME280;27319;50.306;18.926;2023-05-25T09:15:36;98897.59;;;13.69;82.35
41624;BME280;27319;50.306;18.926;2023-05-25T09:18:37;98896.25;;;13.65;82.57
41624;BME280;27319;50.306;18.926;2023-05-25T09:21:59;98899.94;;;13.72;81.83
41624;BME280;27319;50.306;18.926;2023-05-25T09:26:00;98898.44;;;13.70;83.39
41624;BME280;27319;50.306;18.926;2023-05-25T09:30:01;98901.94;;;13.78;82.69
41624;BME280;27319;50.306;18.926;2023-05-25T09:34:02;98906.22;;;13.57;83.08
41624;BME280;27319;50.306;18.926;2023-05-25T09:38:03;98898.81;;;13.51;84.65
41624;BME280;27319;50.306;18.926;2023-05-25T09:42:05;98900.63;;;13.74;83.07
41624;BME280;27319;50.306;18.926;2023-05-25T09:46:06;98907.88;;;13.74;82.60
41624;BME280;27319;50.306;18.926;2023-05-25T09:50:07;98907.88;;;13.74;82.92
41624;BME280;27319;50.306;18.926;2023-05-25T09:54:08;98910.38;;;13.83;81.36
41624;BME280;27319;50.306;18.926;2023-05-25T09:58:12;98905.47;;;13.87;81.40
41624;BME280;27319;50.306;18.926;2023-05-25T10:02:13;98916.13;;;13.80;81.12
41624;BME280;27319;50.306;18.926;2023-05-25T10:05:36;98902.09;;;13.93;81.46
41624;BME280;27319;50.306;18.926;2023-05-25T10:08:37;98912.03;;;14.00;81.89
41624;BME280;27319;50.306;18.926;2023-05-25T10:11:58;98903.06;;;14.08;82.59
41624;BME280;27319;50.306;18.926;2023-05-25T10:15:59;98905.75;;;14.00;82.34
41624;BME280;27319;50.306;18.926;2023-05-25T10:20:02;98896.69;;;14.01;81.98
41624;BME280;27319;50.306;18.926;2023-05-25T10:24:48;98915.84;;;14.14;81.48
41624;BME280;27319;50.306;18.926;2023-05-25T10:28:07;98914.34;;;14.19;82.19
41624;BME280;27319;50.306;18.926;2023-05-25T10:32:06;98909.28;;;14.16;79.31
41624;BME280;27319;50.306;18.926;2023-05-25T10:36:07;98910.94;;;14.25;79.39
41624;BME280;27319;50.306;18.926;2023-05-25T10:40:08;98907.38;;;14.33;81.21
41624;BME280;27319;50.306;18.926;2023-05-25T10:44:09;98912.44;;;14.28;79.40
41624;BME280;27319;50.306;18.926;2023-05-25T10:48:10;98913.63;;;14.33;81.03
41624;BME280;27319;50.306;18.926;2023-05-25T10:52:11;98905.00;;;14.38;80.18
41624;BME280;27319;50.306;18.926;2023-05-25T10:59:34;98903.72;;;14.18;81.44
41624;BME280;27319;50.306;18.926;2023-05-25T11:03:15;98900.63;;;14.29;82.04
41624;BME280;27319;50.306;18.926;2023-05-25T11:07:06;98898.88;;;14.44;80.86
41624;BME280;27319;50.306;18.926;2023-05-25T11:09:56;98900.47;;;14.61;80.53
41624;BME280;27319;50.306;18.926;2023-05-25T11:13:20;98893.97;;;14.47;81.38
41624;BME280;27319;50.306;18.926;2023-05-25T11:16:30;98891.97;;;14.41;81.91
41624;BME280;27319;50.306;18.926;2023-05-25T11:19:51;98896.00;;;14.45;81.51
41624;BME280;27319;50.306;18.926;2023-05-25T11:22:53;98902.13;;;14.39;82.20
41624;BME280;27319;50.306;18.926;2023-05-25T11:26:03;98891.22;;;14.25;82.70
41624;BME280;27319;50.306;18.926;2023-05-25T11:29:14;98895.22;;;14.29;83.19
41624;BME280;27319;50.306;18.926;2023-05-25T11:32:17;98889.53;;;14.24;82.92
41624;BME280;27319;50.306;18.926;2023-05-25T11:35:20;98901.63;;;14.36;82.33
41624;BME280;27319;50.306;18.926;2023-05-25T11:38:23;98897.06;;;14.36;82.96
41624;BME280;27319;50.306;18.926;2023-05-25T11:41:38;98897.53;;;14.48;82.39
41624;BME280;27319;50.306;18.926;2023-05-25T11:44:39;98887.94;;;14.37;82.48
41624;BME280;27319;50.306;18.926;2023-05-25T11:47:41;98888.44;;;14.41;82.30
41624;BME280;27319;50.306;18.926;2023-05-25T11:50:42;98890.03;;;14.58;81.58
41624;BME280;27319;50.306;18.926;2023-05-25T11:53:44;98888.16;;;14.58;83.23
41624;BME280;27319;50.306;18.926;2023-05-25T11:56:45;98881.63;;;14.53;82.20
41624;BME280;27319;50.306;18.926;2023-05-25T11:59:48;98875.06;;;14.47;82.91
41624;BME280;27319;50.306;18.926;2023-05-25T12:02:52;98882.84;;;14.73;82.77
41624;BME280;27319;50.306;18.926;2023-05-25T12:05:54;98882.97;;;14.79;81.68
41624;BME280;27319;50.306;18.926;2023-05-25T12:08:57;98886.97;;;14.83;81.47
41624;BME280;27319;50.306;18.926;2023-05-25T12:11:59;98878.78;;;14.77;82.44
41624;BME280;27319;50.306;18.926;2023-05-25T12:15:00;98881.50;;;14.69;83.52
41624;BME280;27319;50.306;18.926;2023-05-25T12:18:02;98874.56;;;14.74;81.63
41624;BME280;27319;50.306;18.926;2023-05-25T12:21:03;98875.28;;;14.68;81.83
41624;BME280;27319;50.306;18.926;2023-05-25T12:24:09;98873.38;;;14.77;82.22
41624;BME280;27319;50.306;18.926;2023-05-25T12:27:19;98868.34;;;14.96;82.72
41624;BME280;27319;50.306;18.926;2023-05-25T12:30:26;98871.97;;;15.03;82.66
41624;BME280;27319;50.306;18.926;2023-05-25T12:33:27;98869.41;;;15.10;80.66
41624;BME280;27319;50.306;18.926;2023-05-25T12:36:51;98861.94;;;15.12;80.93
41624;BME280;27319;50.306;18.926;2023-05-25T12:39:52;98864.72;;;15.04;82.14
41624;BME280;27319;50.306;18.926;2023-05-25T12:42:57;98869.59;;;15.08;81.23
41624;BME280;27319;50.306;18.926;2023-05-25T12:45:58;98873.50;;;15.06;82.00
41624;BME280;27319;50.306;18.926;2023-05-25T12:49:02;98867.44;;;15.04;82.25
41624;BME280;27319;50.306;18.926;2023-05-25T12:52:05;98860.38;;;15.17;82.59
41624;BME280;27319;50.306;18.926;2023-05-25T12:55:23;98855.50;;;15.13;83.42
41624;BME280;27319;50.306;18.926;2023-05-25T12:59:36;98856.63;;;15.04;82.12
41624;BME280;27319;50.306;18.926;2023-05-25T13:03:16;98858.09;;;15.06;82.51
41624;BME280;27319;50.306;18.926;2023-05-25T13:06:37;98856.53;;;15.12;82.38
41624;BME280;27319;50.306;18.926;2023-05-25T13:10:38;98869.34;;;14.95;83.41
41624;BME280;27319;50.306;18.926;2023-05-25T13:14:41;98851.59;;;15.15;82.60
41624;BME280;27319;50.306;18.926;2023-05-25T13:18:42;98860.78;;;15.29;82.60
41624;BME280;27319;50.306;18.926;2023-05-25T13:22:43;98851.59;;;15.15;82.33
41624;BME280;27319;50.306;18.926;2023-05-25T13:26:44;98849.09;;;15.36;82.06
41624;BME280;27319;50.306;18.926;2023-05-25T13:30:45;98844.31;;;15.38;81.94
41624;BME280;27319;50.306;18.926;2023-05-25T13:34:46;98840.13;;;15.36;82.62
41624;BME280;27319;50.306;18.926;2023-05-25T13:38:47;98837.25;;;15.37;81.73
41624;BME280;27319;50.306;18.926;2023-05-25T13:42:47;98838.28;;;15.36;82.68
41624;BME280;27319;50.306;18.926;2023-05-25T13:46:49;98833.31;;;15.40;82.85
41624;BME280;27319;50.306;18.926;2023-05-25T13:50:18;98836.69;;;15.42;81.91
41624;BME280;27319;50.306;18.926;2023-05-25T13:53:19;98845.34;;;15.37;81.70
41624;BME280;27319;50.306;18.926;2023-05-25T13:56:20;98843.22;;;15.25;82.77
41624;BME280;27319;50.306;18.926;2023-05-25T13:59:21;98839.19;;;15.21;83.38
41624;BME280;27319;50.306;18.926;2023-05-25T14:02:23;98837.81;;;15.33;82.84
41624;BME280;27319;50.306;18.926;2023-05-25T14:05:24;98839.47;;;15.34;82.31
41624;BME280;27319;50.306;18.926;2023-05-25T14:08:26;98835.25;;;15.31;81.16
41624;BME280;27319;50.306;18.926;2023-05-25T14:11:28;98832.97;;;15.20;81.59
41624;BME280;27319;50.306;18.926;2023-05-25T14:14:30;98831.22;;;15.27;82.01
41624;BME280;27319;50.306;18.926;2023-05-25T14:17:31;98830.56;;;15.25;83.97
41624;BME280;27319;50.306;18.926;2023-05-25T14:20:34;98831.28;;;15.19;82.96
41624;BME280;27319;50.306;18.926;2023-05-25T14:23:36;98838.00;;;15.23;82.68
41624;BME280;27319;50.306;18.926;2023-05-25T14:26:37;98830.19;;;15.28;82.98
41624;BME280;27319;50.306;18.926;2023-05-25T14:29:39;98825.69;;;15.21;83.21
41624;BME280;27319;50.306;18.926;2023-05-25T14:32:41;98821.25;;;15.28;82.76
41624;BME280;27319;50.306;18.926;2023-05-25T14:35:43;98814.97;;;15.27;83.01
41624;BME280;27319;50.306;18.926;2023-05-25T14:38:45;98816.97;;;15.33;83.56
41624;BME280;27319;50.306;18.926;2023-05-25T14:41:46;98822.63;;;15.24;81.50
41624;BME280;27319;50.306;18.926;2023-05-25T14:44:49;98821.78;;;15.23;82.59
41624;BME280;27319;50.306;18.926;2023-05-25T14:47:53;98824.78;;;15.28;82.96
41624;BME280;27319;50.306;18.926;2023-05-25T14:51:14;98830.19;;;15.28;83.02
41624;BME280;27319;50.306;18.926;2023-05-25T14:55:03;98827.69;;;15.27;83.30
41624;BME280;27319;50.306;18.926;2023-05-25T14:59:04;98822.81;;;15.22;82.57
41624;BME280;27319;50.306;18.926;2023-05-25T15:02:46;98821.88;;;15.30;82.96
41624;BME280;27319;50.306;18.926;2023-05-25T15:05:47;98822.22;;;15.35;82.69
41624;BME280;27319;50.306;18.926;2023-05-25T15:08:49;98822.06;;;15.28;81.91
41624;BME280;27319;50.306;18.926;2023-05-25T15:11:50;98820.22;;;15.29;82.31
41624;BME280;27319;50.306;18.926;2023-05-25T15:14:51;98820.56;;;15.26;82.98
41624;BME280;27319;50.306;18.926;2023-05-25T15:17:52;98819.56;;;15.27;82.98
41624;BME280;27319;50.306;18.926;2023-05-25T15:20:54;98806.50;;;15.30;82.16
41624;BME280;27319;50.306;18.926;2023-05-25T15:23:57;98812.03;;;15.37;81.70
41624;BME280;27319;50.306;18.926;2023-05-25T15:26:59;98810.53;;;15.34;83.84
41624;BME280;27319;50.306;18.926;2023-05-25T15:30:01;98807.66;;;15.36;82.41
41624;BME280;27319;50.306;18.926;2023-05-25T15:33:02;98811.69;;;15.40;82.16
41624;BME280;27319;50.306;18.926;2023-05-25T15:36:04;98801.50;;;15.42;82.28
41624;BME280;27319;50.306;18.926;2023-05-25T15:39:05;98806.50;;;15.30;82.71
41624;BME280;27319;50.306;18.926;2023-05-25T15:42:08;98808.03;;;15.33;81.44
41624;BME280;27319;50.306;18.926;2023-05-25T15:45:11;98812.09;;;15.29;83.24
41624;BME280;27319;50.306;18.926;2023-05-25T15:48:12;98802.31;;;15.28;83.33
41624;BME280;27319;50.306;18.926;2023-05-25T15:51:15;98799.09;;;15.32;82.46
41624;BME280;27319;50.306;18.926;2023-05-25T15:54:16;98800.88;;;15.40;83.54
41624;BME280;27319;50.306;18.926;2023-05-25T15:57:17;98797.13;;;15.41;82.02
41624;BME280;27319;50.306;18.926;2023-05-25T16:00:38;98802.44;;;15.49;82.88
41624;BME280;27319;50.306;18.926;2023-05-25T16:04:19;98794.53;;;15.47;82.14
41624;BME280;27319;50.306;18.926;2023-05-25T16:07:20;98792.94;;;15.53;82.19
41624;BME280;27319;50.306;18.926;2023-05-25T16:10:22;98790.63;;;15.50;82.44
41624;BME280;27319;50.306;18.926;2023-05-25T16:13:23;98793.03;;;15.45;81.63
41624;BME280;27319;50.306;18.926;2023-05-25T16:16:24;98788.09;;;15.48;82.33
41624;BME280;27319;50.306;18.926;2023-05-25T16:19:25;98786.69;;;15.67;81.52
41624;BME280;27319;50.306;18.926;2023-05-25T16:22:26;98799.28;;;15.74;81.98
41624;BME280;27319;50.306;18.926;2023-05-25T16:25:27;98788.28;;;15.61;81.94
41624;BME280;27319;50.306;18.926;2023-05-25T16:28:28;98786.44;;;15.62;81.15
41624;BME280;27319;50.306;18.926;2023-05-25T16:31:46;98787.25;;;15.62;82.08
41624;BME280;27319;50.306;18.926;2023-05-25T16:34:47;98790.22;;;15.82;81.87
41624;BME280;27319;50.306;18.926;2023-05-25T16:37:48;98795.53;;;15.75;81.40
41624;BME280;27319;50.306;18.926;2023-05-25T16:40:49;98794.34;;;15.78;81.38
41624;BME280;27319;50.306;18.926;2023-05-25T16:43:53;98786.69;;;15.67;81.18
41624;BME280;27319;50.306;18.926;2023-05-25T16:46:54;98790.06;;;15.69;81.69
41624;BME280;27319;50.306;18.926;2023-05-25T16:50:00;98781.66;;;15.64;82.43
41624;BME280;27319;50.306;18.926;2023-05-25T16:53:01;98787.25;;;15.62;82.49
41624;BME280;27319;50.306;18.926;2023-05-25T16:56:04;98782.41;;;15.58;83.06
41624;BME280;27319;50.306;18.926;2023-05-25T16:59:05;98776.13;;;15.57;83.03
41624;BME280;27319;50.306;18.926;2023-05-25T17:02:07;98787.34;;;15.54;82.68
41624;BME280;27319;50.306;18.926;2023-05-25T17:05:09;98778.31;;;15.62;83.40
41624;BME280;27319;50.306;18.926;2023-05-25T17:08:30;98791.28;;;15.52;83.32
41624;BME280;27319;50.306;18.926;2023-05-25T17:12:31;98783.44;;;15.57;83.31
41624;BME280;27319;50.306;18.926;2023-05-25T17:16:33;98785.47;;;15.55;83.53
41624;BME280;27319;50.306;18.926;2023-05-25T17:20:34;98790.97;;;15.47;84.15
41624;BME280;27319;50.306;18.926;2023-05-25T17:24:35;98790.97;;;15.47;84.00
41624;BME280;27319;50.306;18.926;2023-05-25T17:28:17;98797.41;;;15.46;83.34
41624;BME280;27319;50.306;18.926;2023-05-25T17:31:19;98789.47;;;15.44;84.44
41624;BME280;27319;50.306;18.926;2023-05-25T17:34:20;98789.00;;;15.41;83.89
41624;BME280;27319;50.306;18.926;2023-05-25T17:37:42;98786.66;;;15.38;84.62
41624;BME280;27319;50.306;18.926;2023-05-25T17:41:43;98789.44;;;15.30;85.01
41624;BME280;27319;50.306;18.926;2023-05-25T17:45:45;98783.44;;;15.42;84.31
41624;BME280;27319;50.306;18.926;2023-05-25T17:49:46;98792.47;;;15.35;85.68
41624;BME280;27319;50.306;18.926;2023-05-25T17:53:47;98794.53;;;15.33;84.61
41624;BME280;27319;50.306;18.926;2023-05-25T17:57:49;98791.09;;;15.31;85.58
41624;BME280;27319;50.306;18.926;2023-05-25T18:01:50;98788.41;;;15.31;84.27
41624;BME280;27319;50.306;18.926;2023-05-25T18:05:32;98791.06;;;15.39;84.48